sensor_id;sensor_type;location;lat;lon;timestamp;pressure;altitude;pressure_sealevel;temperature;humidity
9281;BME280;4679;47.966;7.958;2023-05-29T06:16:54;97102.63;;;15.56;62.01
9281;BME280;4679;47.966;7.958;2023-05-29T06:18:56;97100.97;;;15.65;61.99
9281;BME280;4679;47.966;7.958;2023-05-29T06:20:58;97104.63;;;15.74;61.35
9281;BME280;4679;47.966;7.958;2023-05-29T06:23:00;97100.31;;;15.83;61.85
9281;BME280;4679;47.966;7.958;2023-05-29T06:25:02;97095.41;;;15.95;61.92
9281;BME280;4679;47.966;7.958;2023-05-29T06:27:04;97102.53;;;16.10;61.26
9281;BME280;4679;47.966;7.958;2023-05-29T06:29:06;97103.78;;;16.23;61.08
9281;BME280;4679;47.966;7.958;2023-05-29T06:31:08;97102.41;;;16.30;61.53
9281;BME280;4679;47.966;7.958;2023-05-29T06:33:11;97109.53;;;16.40;61.14
9281;BME280;4679;47.966;7.958;2023-05-29T06:35:13;97104.88;;;16.50;60.67
9281;BME280;4679;47.966;7.958;2023-05-29T06:37:15;97110.44;;;16.59;60.56
9281;BME280;4679;47.966;7.958;2023-05-29T06:39:16;97109.06;;;16.67;60.65
9281;BME280;4679;47.966;7.958;2023-05-29T06:41:20;97107.66;;;16.74;60.05
9281;BME280;4679;47.966;7.958;2023-05-29T06:43:22;97108.34;;;16.85;60.56
9281;BME280;4679;47.966;7.958;2023-05-29T06:45:23;97109.25;;;16.99;60.21
9281;BME280;4679;47.966;7.958;2023-05-29T06:47:25;97111.56;;;17.11;60.12
9281;BME280;4679;47.966;7.958;2023-05-29T06:49:28;97116.56;;;17.17;59.89
9281;BME280;4679;47.966;7.958;2023-05-29T06:51:30;97110.88;;;17.24;59.30
9281;BME280;4679;47.966;7.958;2023-05-29T06:53:34;97113.47;;;17.29;59.12
9281;BME280;4679;47.966;7.958;2023-05-29T06:55:36;97115.81;;;17.36;59.26
9281;BME280;4679;47.966;7.958;2023-05-29T06:57:37;97116.56;;;17.41;59.20
9281;BME280;4679;47.966;7.958;2023-05-29T06:59:39;97118.38;;;17.46;59.46
9281;BME280;4679;47.966;7.958;2023-05-29T07:01:41;97119.63;;;17.53;59.43
9281;BME280;4679;47.966;7.958;2023-05-29T07:03:42;97116.84;;;17.64;59.41
9281;BME280;4679;47.966;7.958;2023-05-29T07:05:45;97111.63;;;17.72;59.35
9281;BME280;4679;47.966;7.958;2023-05-29T07:07:47;97127.88;;;17.81;59.45
9281;BME280;4679;47.966;7.958;2023-05-29T07:09:49;97124.78;;;17.92;59.12
9281;BME280;4679;47.966;7.958;2023-05-29T07:11:50;97121.94;;;18.03;59.02
9281;BME280;4679;47.966;7.958;2023-05-29T07:13:53;97125.56;;;18.12;59.08
9281;BME280;4679;47.966;7.958;2023-05-29T07:15:54;97128.88;;;18.22;59.20
9281;BME280;4679;47.966;7.958;2023-05-29T07:17:56;97126.88;;;18.33;58.83
9281;BME280;4679;47.966;7.958;2023-05-29T07:19:58;97125.09;;;18.42;58.83
9281;BME280;4679;47.966;7.958;2023-05-29T07:22:01;97120.94;;;18.50;58.84
9281;BME280;4679;47.966;7.958;2023-05-29T07:24:03;97123.25;;;18.56;58.72
9281;BME280;4679;47.966;7.958;2023-05-29T07:26:04;97122.91;;;18.63;58.38
9281;BME280;4679;47.966;7.958;2023-05-29T07:28:06;97128.59;;;18.75;58.46
9281;BME280;4679;47.966;7.958;2023-05-29T07:30:08;97122.25;;;18.85;58.21
9281;BME280;4679;47.966;7.958;2023-05-29T07:32:10;97123.75;;;18.91;58.06
9281;BME280;4679;47.966;7.958;2023-05-29T07:34:12;97128.94;;;19.01;57.90
9281;BME280;4679;47.966;7.958;2023-05-29T07:36:15;97127.47;;;19.09;57.78
9281;BME280;4679;47.966;7.958;2023-05-29T07:38:18;97119.50;;;19.17;57.78
9281;BME280;4679;47.966;7.958;2023-05-29T07:40:20;97131.13;;;19.26;57.35
9281;BME280;4679;47.966;7.958;2023-05-29T07:42:22;97121.28;;;19.36;57.41
9281;BME280;4679;47.966;7.958;2023-05-29T07:44:24;97125.75;;;19.40;57.50
9281;BME280;4679;47.966;7.958;2023-05-29T07:46:26;97123.47;;;19.47;57.21
9281;BME280;4679;47.966;7.958;2023-05-29T07:48:28;97121.69;;;19.56;56.76
9281;BME280;4679;47.966;7.958;2023-05-29T07:50:30;97120.91;;;19.70;56.55
9281;BME280;4679;47.966;7.958;2023-05-29T07:52:31;97120.56;;;19.85;56.29
9281;BME280;4679;47.966;7.958;2023-05-29T07:54:35;97119.84;;;19.93;56.11
9281;BME280;4679;47.966;7.958;2023-05-29T07:56:36;97109.00;;;20.07;55.95
9281;BME280;4679;47.966;7.958;2023-05-29T07:58:39;97111.78;;;20.15;55.75
9281;BME280;4679;47.966;7.958;2023-05-29T08:00:43;97114.53;;;20.24;55.57
9281;BME280;4679;47.966;7.958;2023-05-29T08:02:45;97118.00;;;20.38;55.45
9281;BME280;4679;47.966;7.958;2023-05-29T08:04:46;97108.75;;;20.53;55.11
9281;BME280;4679;47.966;7.958;2023-05-29T08:06:48;97116.47;;;20.68;54.88
9281;BME280;4679;47.966;7.958;2023-05-29T08:08:50;97118.28;;;20.81;54.43
9281;BME280;4679;47.966;7.958;2023-05-29T08:10:53;97110.56;;;20.97;54.08
9281;BME280;4679;47.966;7.958;2023-05-29T08:12:55;97101.75;;;21.14;53.73
9281;BME280;4679;47.966;7.958;2023-05-29T08:14:57;97111.19;;;21.25;54.13
9281;BME280;4679;47.966;7.958;2023-05-29T08:16:58;97102.66;;;21.40;53.68
9281;BME280;4679;47.966;7.958;2023-05-29T08:19:00;97108.13;;;21.57;53.32
9281;BME280;4679;47.966;7.958;2023-05-29T08:21:02;97103.69;;;21.61;53.19
9281;BME280;4679;47.966;7.958;2023-05-29T08:23:04;97111.91;;;21.48;53.48
9281;BME280;4679;47.966;7.958;2023-05-29T08:25:06;97110.31;;;21.47;53.34
9281;BME280;4679;47.966;7.958;2023-05-29T08:27:10;97106.88;;;21.63;53.14
9281;BME280;4679;47.966;7.958;2023-05-29T08:29:11;97111.78;;;21.70;52.77
9281;BME280;4679;47.966;7.958;2023-05-29T08:31:13;97109.44;;;21.77;52.79
9281;BME280;4679;47.966;7.958;2023-05-29T08:33:15;97113.25;;;21.67;52.78
9281;BME280;4679;47.966;7.958;2023-05-29T08:35:17;97115.16;;;21.67;53.15
9281;BME280;4679;47.966;7.958;2023-05-29T08:37:19;97110.53;;;21.67;52.72
9281;BME280;4679;47.966;7.958;2023-05-29T08:39:21;97112.28;;;21.72;52.82
9281;BME280;4679;47.966;7.958;2023-05-29T08:41:26;97116.75;;;21.94;52.51
9281;BME280;4679;47.966;7.958;2023-05-29T08:43:31;97122.69;;;22.04;52.42
9281;BME280;4679;47.966;7.958;2023-05-29T08:45:34;97118.06;;;22.22;52.08
9281;BME280;4679;47.966;7.958;2023-05-29T08:47:36;97122.84;;;22.34;51.93
9281;BME280;4679;47.966;7.958;2023-05-29T08:49:41;97112.50;;;22.36;51.84
9281;BME280;4679;47.966;7.958;2023-05-29T08:51:45;97121.56;;;22.57;51.63
9281;BME280;4679;47.966;7.958;2023-05-29T08:53:51;97124.56;;;22.47;51.73
9281;BME280;4679;47.966;7.958;2023-05-29T08:55:53;97125.19;;;22.61;51.66
9281;BME280;4679;47.966;7.958;2023-05-29T08:57:56;97118.34;;;22.81;51.42
9281;BME280;4679;47.966;7.958;2023-05-29T09:00:00;97118.19;;;22.86;51.16
9281;BME280;4679;47.966;7.958;2023-05-29T09:02:03;97125.50;;;22.77;51.47
9281;BME280;4679;47.966;7.958;2023-05-29T09:04:06;97125.03;;;22.66;51.16
9281;BME280;4679;47.966;7.958;2023-05-29T09:06:08;97123.28;;;22.79;51.56
9281;BME280;4679;47.966;7.958;2023-05-29T09:08:10;97120.50;;;23.05;50.75
9281;BME280;4679;47.966;7.958;2023-05-29T09:10:13;97125.50;;;23.24;50.61
9281;BME280;4679;47.966;7.958;2023-05-29T09:12:15;97120.66;;;23.38;50.34
9281;BME280;4679;47.966;7.958;2023-05-29T09:14:35;97114.91;;;23.48;50.20
9281;BME280;4679;47.966;7.958;2023-05-29T09:16:41;97110.28;;;23.78;49.75
9281;BME280;4679;47.966;7.958;2023-05-29T09:18:44;97114.34;;;23.93;49.35
9281;BME280;4679;47.966;7.958;2023-05-29T09:20:46;97117.09;;;23.84;49.26
9281;BME280;4679;47.966;7.958;2023-05-29T09:22:52;97117.38;;;23.91;48.77
9281;BME280;4679;47.966;7.958;2023-05-29T09:24:54;97117.97;;;23.97;48.70
9281;BME280;4679;47.966;7.958;2023-05-29T09:26:58;97111.09;;;23.78;48.86
9281;BME280;4679;47.966;7.958;2023-05-29T09:29:01;97116.88;;;23.68;48.96
9281;BME280;4679;47.966;7.958;2023-05-29T09:31:13;97107.28;;;23.71;48.71
9281;BME280;4679;47.966;7.958;2023-05-29T09:33:16;97117.88;;;23.84;48.23
9281;BME280;4679;47.966;7.958;2023-05-29T09:35:19;97119.88;;;24.17;47.29
9281;BME280;4679;47.966;7.958;2023-05-29T09:37:20;97105.75;;;24.32;46.45
9281;BME280;4679;47.966;7.958;2023-05-29T09:39:22;97118.59;;;24.44;45.47
9281;BME280;4679;47.966;7.958;2023-05-29T09:41:25;97111.13;;;24.41;44.72
9281;BME280;4679;47.966;7.958;2023-05-29T09:43:27;97117.56;;;24.48;43.71
9281;BME280;4679;47.966;7.958;2023-05-29T09:45:28;97112.28;;;24.52;43.46
9281;BME280;4679;47.966;7.958;2023-05-29T09:47:33;97115.91;;;24.56;43.09
9281;BME280;4679;47.966;7.958;2023-05-29T09:49:40;97124.69;;;24.74;41.97
9281;BME280;4679;47.966;7.958;2023-05-29T09:51:45;97121.56;;;24.63;40.93
9281;BME280;4679;47.966;7.958;2023-05-29T09:53:48;97114.22;;;24.64;40.38
9281;BME280;4679;47.966;7.958;2023-05-29T09:55:51;97119.00;;;24.67;40.10
9281;BME280;4679;47.966;7.958;2023-05-29T09:57:54;97111.53;;;24.76;39.78
9281;BME280;4679;47.966;7.958;2023-05-29T09:59:56;97111.47;;;24.84;39.23
9281;BME280;4679;47.966;7.958;2023-05-29T10:02:01;97106.72;;;24.81;39.05
9281;BME280;4679;47.966;7.958;2023-05-29T10:04:04;97098.91;;;24.92;39.04
9281;BME280;4679;47.966;7.958;2023-05-29T10:06:07;97105.09;;;25.01;38.66
9281;BME280;4679;47.966;7.958;2023-05-29T10:08:12;97095.16;;;25.05;38.40
9281;BME280;4679;47.966;7.958;2023-05-29T10:10:14;97100.13;;;25.15;38.00
9281;BME280;4679;47.966;7.958;2023-05-29T10:12:19;97096.75;;;25.18;37.56
9281;BME280;4679;47.966;7.958;2023-05-29T10:14:22;97104.75;;;25.15;37.38
9281;BME280;4679;47.966;7.958;2023-05-29T10:16:25;97102.06;;;25.27;37.49
9281;BME280;4679;47.966;7.958;2023-05-29T10:18:31;97105.56;;;25.40;37.04
9281;BME280;4679;47.966;7.958;2023-05-29T10:20:35;97101.38;;;25.67;36.74
9281;BME280;4679;47.966;7.958;2023-05-29T10:22:41;97099.47;;;25.79;36.29
9281;BME280;4679;47.966;7.958;2023-05-29T10:24:46;97105.22;;;25.78;36.60
9281;BME280;4679;47.966;7.958;2023-05-29T10:26:49;97105.91;;;25.75;36.33
9281;BME280;4679;47.966;7.958;2023-05-29T10:28:56;97098.91;;;25.62;36.22
9281;BME280;4679;47.966;7.958;2023-05-29T10:31:03;97104.00;;;25.51;35.91
9281;BME280;4679;47.966;7.958;2023-05-29T10:33:35;97094.94;;;25.47;35.85
9281;BME280;4679;47.966;7.958;2023-05-29T10:35:43;97094.72;;;25.64;35.74
9281;BME280;4679;47.966;7.958;2023-05-29T10:37:53;97100.94;;;25.65;35.41
9281;BME280;4679;47.966;7.958;2023-05-29T10:40:03;97100.38;;;25.47;35.38
9281;BME280;4679;47.966;7.958;2023-05-29T10:42:40;97100.13;;;25.40;34.84
9281;BME280;4679;47.966;7.958;2023-05-29T10:44:42;97086.75;;;25.59;34.98
9281;BME280;4679;47.966;7.958;2023-05-29T10:47:05;97076.34;;;25.61;34.47
9281;BME280;4679;47.966;7.958;2023-05-29T10:49:15;97085.94;;;25.95;34.26
9281;BME280;4679;47.966;7.958;2023-05-29T10:51:27;97091.63;;;26.18;34.14
9281;BME280;4679;47.966;7.958;2023-05-29T10:53:32;97084.50;;;26.25;34.35
9281;BME280;4679;47.966;7.958;2023-05-29T10:55:35;97084.47;;;26.38;34.38
9281;BME280;4679;47.966;7.958;2023-05-29T10:57:46;97077.44;;;26.37;33.70
9281;BME280;4679;47.966;7.958;2023-05-29T10:59:58;97083.13;;;26.32;33.93
9281;BME280;4679;47.966;7.958;2023-05-29T11:02:00;97069.28;;;26.24;34.12
9281;BME280;4679;47.966;7.958;2023-05-29T11:04:26;97082.81;;;26.49;34.19
9281;BME280;4679;47.966;7.958;2023-05-29T11:06:34;97078.31;;;26.69;33.67
9281;BME280;4679;47.966;7.958;2023-05-29T11:08:44;97080.69;;;26.86;33.29
9281;BME280;4679;47.966;7.958;2023-05-29T11:10:56;97078.47;;;27.04;33.52
9281;BME280;4679;47.966;7.958;2023-05-29T11:12:58;97073.75;;;26.73;33.19
9281;BME280;4679;47.966;7.958;2023-05-29T11:15:03;97072.66;;;26.61;33.68
9281;BME280;4679;47.966;7.958;2023-05-29T11:17:05;97077.56;;;26.56;33.51
9281;BME280;4679;47.966;7.958;2023-05-29T11:19:07;97080.38;;;26.59;33.91
9281;BME280;4679;47.966;7.958;2023-05-29T11:21:22;97073.38;;;26.90;33.33
9281;BME280;4679;47.966;7.958;2023-05-29T11:23:27;97069.50;;;27.03;33.55
9281;BME280;4679;47.966;7.958;2023-05-29T11:25:35;97066.03;;;27.06;33.31
9281;BME280;4679;47.966;7.958;2023-05-29T11:27:37;97069.72;;;27.29;32.77
9281;BME280;4679;47.966;7.958;2023-05-29T11:29:39;97065.84;;;27.46;32.42
9281;BME280;4679;47.966;7.958;2023-05-29T11:31:41;97057.38;;;27.67;32.68
9281;BME280;4679;47.966;7.958;2023-05-29T11:33:47;97062.50;;;27.88;32.40
9281;BME280;4679;47.966;7.958;2023-05-29T11:35:54;97071.13;;;27.90;32.28
9281;BME280;4679;47.966;7.958;2023-05-29T11:37:57;97062.44;;;28.04;31.91
9281;BME280;4679;47.966;7.958;2023-05-29T11:39:59;97066.59;;;27.97;32.08
9281;BME280;4679;47.966;7.958;2023-05-29T11:42:02;97080.75;;;27.68;32.43
9281;BME280;4679;47.966;7.958;2023-05-29T11:44:04;97073.38;;;27.53;32.43
9281;BME280;4679;47.966;7.958;2023-05-29T11:46:19;97069.09;;;27.20;32.61
9281;BME280;4679;47.966;7.958;2023-05-29T11:48:21;97066.94;;;27.10;32.65
9281;BME280;4679;47.966;7.958;2023-05-29T11:50:25;97060.56;;;26.90;32.73
9281;BME280;4679;47.966;7.958;2023-05-29T11:52:27;97067.94;;;26.90;32.65
9281;BME280;4679;47.966;7.958;2023-05-29T11:54:29;97056.44;;;26.81;32.46
9281;BME280;4679;47.966;7.958;2023-05-29T11:56:30;97059.69;;;26.71;31.97
9281;BME280;4679;47.966;7.958;2023-05-29T11:58:33;97051.44;;;26.83;32.58
9281;BME280;4679;47.966;7.958;2023-05-29T12:00:36;97053.94;;;27.04;32.09
9281;BME280;4679;47.966;7.958;2023-05-29T12:02:38;97052.25;;;27.15;31.83
9281;BME280;4679;47.966;7.958;2023-05-29T12:04:40;97054.69;;;27.20;31.89
9281;BME280;4679;47.966;7.958;2023-05-29T12:06:41;97048.91;;;27.06;32.44
9281;BME280;4679;47.966;7.958;2023-05-29T12:08:43;97054.34;;;27.06;32.49
9281;BME280;4679;47.966;7.958;2023-05-29T12:10:48;97046.81;;;27.15;31.92
9281;BME280;4679;47.966;7.958;2023-05-29T12:12:51;97050.81;;;27.21;31.74
9281;BME280;4679;47.966;7.958;2023-05-29T12:14:54;97047.84;;;27.10;32.31
9281;BME280;4679;47.966;7.958;2023-05-29T12:16:56;97048.66;;;26.95;32.01
9281;BME280;4679;47.966;7.958;2023-05-29T12:18:59;97051.38;;;27.11;31.93
9281;BME280;4679;47.966;7.958;2023-05-29T12:21:02;97045.56;;;27.12;31.96
9281;BME280;4679;47.966;7.958;2023-05-29T12:23:05;97055.47;;;27.20;31.65
9281;BME280;4679;47.966;7.958;2023-05-29T12:25:09;97041.59;;;27.25;32.24
9281;BME280;4679;47.966;7.958;2023-05-29T12:27:11;97039.81;;;27.49;31.85
9281;BME280;4679;47.966;7.958;2023-05-29T12:29:13;97041.00;;;27.67;31.54
9281;BME280;4679;47.966;7.958;2023-05-29T12:31:26;97047.50;;;27.78;31.62
9281;BME280;4679;47.966;7.958;2023-05-29T12:33:29;97044.81;;;27.62;31.96
9281;BME280;4679;47.966;7.958;2023-05-29T12:35:31;97041.44;;;27.69;31.67
9281;BME280;4679;47.966;7.958;2023-05-29T12:37:33;97045.13;;;27.96;31.23
9281;BME280;4679;47.966;7.958;2023-05-29T12:39:35;97042.69;;;27.91;31.22
9281;BME280;4679;47.966;7.958;2023-05-29T12:41:38;97049.69;;;28.27;30.82
9281;BME280;4679;47.966;7.958;2023-05-29T12:43:40;97050.09;;;28.48;30.83
9281;BME280;4679;47.966;7.958;2023-05-29T12:45:42;97046.75;;;28.35;30.98
9281;BME280;4679;47.966;7.958;2023-05-29T12:47:48;97055.75;;;28.01;31.09
9281;BME280;4679;47.966;7.958;2023-05-29T12:49:51;97047.81;;;27.92;31.42
9281;BME280;4679;47.966;7.958;2023-05-29T12:51:52;97051.69;;;27.91;31.49
9281;BME280;4679;47.966;7.958;2023-05-29T12:53:54;97047.72;;;27.89;30.88
9281;BME280;4679;47.966;7.958;2023-05-29T12:55:57;97055.13;;;27.88;30.92
9281;BME280;4679;47.966;7.958;2023-05-29T12:57:59;97053.06;;;27.66;31.12
9281;BME280;4679;47.966;7.958;2023-05-29T13:00:01;97061.06;;;27.75;31.17
9281;BME280;4679;47.966;7.958;2023-05-29T13:02:03;97049.28;;;27.71;31.13
9281;BME280;4679;47.966;7.958;2023-05-29T13:04:08;97048.69;;;27.81;30.91
9281;BME280;4679;47.966;7.958;2023-05-29T13:06:12;97040.78;;;27.91;31.19
9281;BME280;4679;47.966;7.958;2023-05-29T13:08:14;97055.63;;;27.94;30.95
9281;BME280;4679;47.966;7.958;2023-05-29T13:10:16;97046.50;;;28.06;30.86
9281;BME280;4679;47.966;7.958;2023-05-29T13:12:17;97046.56;;;27.55;31.43
9281;BME280;4679;47.966;7.958;2023-05-29T13:14:19;97053.88;;;27.35;31.60
9281;BME280;4679;47.966;7.958;2023-05-29T13:16:21;97058.81;;;27.45;31.21
9281;BME280;4679;47.966;7.958;2023-05-29T13:18:23;97049.50;;;27.30;31.91
9281;BME280;4679;47.966;7.958;2023-05-29T13:20:26;97053.94;;;27.04;31.60
9281;BME280;4679;47.966;7.958;2023-05-29T13:22:27;97062.75;;;26.69;31.82
9281;BME280;4679;47.966;7.958;2023-05-29T13:24:32;97051.06;;;26.53;32.25
9281;BME280;4679;47.966;7.958;2023-05-29T13:26:33;97057.59;;;26.36;32.37
9281;BME280;4679;47.966;7.958;2023-05-29T13:28:35;97062.28;;;26.51;32.47
9281;BME280;4679;47.966;7.958;2023-05-29T13:30:37;97055.69;;;26.96;31.63
9281;BME280;4679;47.966;7.958;2023-05-29T13:32:39;97056.47;;;27.28;31.52
9281;BME280;4679;47.966;7.958;2023-05-29T13:34:41;97046.75;;;27.62;31.43
9281;BME280;4679;47.966;7.958;2023-05-29T13:36:44;97044.88;;;27.66;31.07
9281;BME280;4679;47.966;7.958;2023-05-29T13:38:46;97044.34;;;27.76;30.91
9281;BME280;4679;47.966;7.958;2023-05-29T13:40:48;97039.03;;;27.83;30.80
9281;BME280;4679;47.966;7.958;2023-05-29T13:42:49;97036.03;;;27.88;30.98
9281;BME280;4679;47.966;7.958;2023-05-29T13:44:52;97030.84;;;27.64;31.10
9281;BME280;4679;47.966;7.958;2023-05-29T13:46:54;97042.53;;;27.49;30.72
9281;BME280;4679;47.966;7.958;2023-05-29T13:48:55;97048.97;;;27.41;30.97
9281;BME280;4679;47.966;7.958;2023-05-29T13:50:57;97043.38;;;27.34;30.81
9281;BME280;4679;47.966;7.958;2023-05-29T13:53:00;97040.38;;;27.07;30.70
9281;BME280;4679;47.966;7.958;2023-05-29T13:55:02;97037.84;;;26.99;31.25
9281;BME280;4679;47.966;7.958;2023-05-29T13:57:08;97034.25;;;26.94;30.86
9281;BME280;4679;47.966;7.958;2023-05-29T13:59:10;97038.28;;;27.16;30.83
9281;BME280;4679;47.966;7.958;2023-05-29T14:01:12;97040.38;;;27.23;30.85
9281;BME280;4679;47.966;7.958;2023-05-29T14:03:15;97033.50;;;27.29;30.46
9281;BME280;4679;47.966;7.958;2023-05-29T14:05:19;97034.69;;;27.12;31.10
9281;BME280;4679;47.966;7.958;2023-05-29T14:07:20;97040.72;;;27.21;31.08
9281;BME280;4679;47.966;7.958;2023-05-29T14:09:24;97023.25;;;27.07;30.59
9281;BME280;4679;47.966;7.958;2023-05-29T14:11:27;97016.75;;;26.95;30.95
9281;BME280;4679;47.966;7.958;2023-05-29T14:13:29;97019.72;;;27.06;30.88
9281;BME280;4679;47.966;7.958;2023-05-29T14:15:31;97020.34;;;27.15;30.72
9281;BME280;4679;47.966;7.958;2023-05-29T14:17:33;97015.94;;;27.26;30.76
9281;BME280;4679;47.966;7.958;2023-05-29T14:19:34;97014.34;;;27.25;30.67
9281;BME280;4679;47.966;7.958;2023-05-29T14:21:36;97011.19;;;27.23;30.96
9281;BME280;4679;47.966;7.958;2023-05-29T14:23:38;97012.06;;;27.27;30.92
9281;BME280;4679;47.966;7.958;2023-05-29T14:25:41;97021.19;;;27.19;30.80
9281;BME280;4679;47.966;7.958;2023-05-29T14:27:43;97011.28;;;27.11;31.56
9281;BME280;4679;47.966;7.958;2023-05-29T14:29:45;97012.53;;;27.14;31.52
9281;BME280;4679;47.966;7.958;2023-05-29T14:31:47;97009.91;;;27.17;31.30
9281;BME280;4679;47.966;7.958;2023-05-29T14:33:48;97014.81;;;27.12;31.07
9281;BME280;4679;47.966;7.958;2023-05-29T14:35:50;97017.78;;;26.91;31.56
9281;BME280;4679;47.966;7.958;2023-05-29T14:37:52;97017.28;;;27.01;31.12
9281;BME280;4679;47.966;7.958;2023-05-29T14:39:54;97013.94;;;27.08;31.33
9281;BME280;4679;47.966;7.958;2023-05-29T14:41:57;97017.34;;;27.20;31.13
9281;BME280;4679;47.966;7.958;2023-05-29T14:43:58;97018.91;;;27.21;31.26
9281;BME280;4679;47.966;7.958;2023-05-29T14:46:00;97015.16;;;27.10;31.30
9281;BME280;4679;47.966;7.958;2023-05-29T14:48:03;97012.69;;;26.89;31.29
9281;BME280;4679;47.966;7.958;2023-05-29T14:50:06;97016.47;;;26.85;31.25
9281;BME280;4679;47.966;7.958;2023-05-29T14:52:08;97024.34;;;26.90;31.20
9281;BME280;4679;47.966;7.958;2023-05-29T14:54:09;97020.47;;;27.03;31.27
9281;BME280;4679;47.966;7.958;2023-05-29T14:56:12;97019.28;;;27.04;31.77
9281;BME280;4679;47.966;7.958;2023-05-29T14:58:15;97008.25;;;26.97;31.72
9281;BME280;4679;47.966;7.958;2023-05-29T15:00:17;97016.91;;;26.87;31.53
9281;BME280;4679;47.966;7.958;2023-05-29T15:02:19;97019.28;;;26.73;31.50
9281;BME280;4679;47.966;7.958;2023-05-29T15:04:21;97029.19;;;26.65;32.08
9281;BME280;4679;47.966;7.958;2023-05-29T15:06:22;97018.13;;;26.58;31.82
9281;BME280;4679;47.966;7.958;2023-05-29T15:08:25;97023.81;;;26.53;32.13
9281;BME280;4679;47.966;7.958;2023-05-29T15:10:28;97025.31;;;26.50;32.25
9281;BME280;4679;47.966;7.958;2023-05-29T15:12:32;97023.28;;;26.47;32.29
9281;BME280;4679;47.966;7.958;2023-05-29T15:14:35;97018.34;;;26.37;32.43
9281;BME280;4679;47.966;7.958;2023-05-29T15:16:37;97019.94;;;26.38;32.56
9281;BME280;4679;47.966;7.958;2023-05-29T15:18:39;97023.81;;;26.37;32.62
9281;BME280;4679;47.966;7.958;2023-05-29T15:20:41;97019.75;;;26.31;32.31
9281;BME280;4679;47.966;7.958;2023-05-29T15:22:42;97018.59;;;26.32;32.50
9281;BME280;4679;47.966;7.958;2023-05-29T15:24:44;97017.16;;;26.22;32.57
9281;BME280;4679;47.966;7.958;2023-05-29T15:26:45;97025.56;;;26.17;31.93
9281;BME280;4679;47.966;7.958;2023-05-29T15:28:47;97025.56;;;26.17;32.36
9281;BME280;4679;47.966;7.958;2023-05-29T15:30:50;97020.28;;;26.09;32.19
9281;BME280;4679;47.966;7.958;2023-05-29T15:32:52;97010.28;;;26.13;32.24
9281;BME280;4679;47.966;7.958;2023-05-29T15:34:54;97019.78;;;26.19;31.70
9281;BME280;4679;47.966;7.958;2023-05-29T15:36:55;97018.28;;;26.21;31.60
9281;BME280;4679;47.966;7.958;2023-05-29T15:38:57;97016.38;;;26.22;31.98
9281;BME280;4679;47.966;7.958;2023-05-29T15:40:59;97018.28;;;26.21;32.08
9281;BME280;4679;47.966;7.958;2023-05-29T15:43:00;97023.19;;;26.16;32.42
9281;BME280;4679;47.966;7.958;2023-05-29T15:45:03;97023.00;;;26.09;32.36
9281;BME280;4679;47.966;7.958;2023-05-29T15:47:06;97022.31;;;26.12;31.85
9281;BME280;4679;47.966;7.958;2023-05-29T15:49:08;97020.38;;;26.12;32.44
9281;BME280;4679;47.966;7.958;2023-05-29T15:51:10;97015.72;;;26.13;32.36
9281;BME280;4679;47.966;7.958;2023-05-29T15:53:12;97012.19;;;25.97;32.25
9281;BME280;4679;47.966;7.958;2023-05-29T15:55:14;97008.56;;;25.92;32.46
9281;BME280;4679;47.966;7.958;2023-05-29T15:57:15;97009.34;;;25.93;32.72
9281;BME280;4679;47.966;7.958;2023-05-29T15:59:17;97020.75;;;25.99;32.27
9281;BME280;4679;47.966;7.958;2023-05-29T16:01:18;97016.91;;;26.00;32.58
9281;BME280;4679;47.966;7.958;2023-05-29T16:03:22;97015.75;;;26.01;32.30
9281;BME280;4679;47.966;7.958;2023-05-29T16:05:23;97016.50;;;26.13;32.76
9281;BME280;4679;47.966;7.958;2023-05-29T16:07:25;97008.78;;;26.15;32.48
9281;BME280;4679;47.966;7.958;2023-05-29T16:09:27;97014.97;;;26.00;32.64
9281;BME280;4679;47.966;7.958;2023-05-29T16:11:29;97006.97;;;25.91;32.62
9281;BME280;4679;47.966;7.958;2023-05-29T16:13:31;97010.19;;;25.81;32.45
9281;BME280;4679;47.966;7.958;2023-05-29T16:15:33;97003.16;;;25.80;32.73
9281;BME280;4679;47.966;7.958;2023-05-29T16:17:35;97006.69;;;25.81;32.87
9281;BME280;4679;47.966;7.958;2023-05-29T16:19:38;97004.97;;;25.76;33.09
9281;BME280;4679;47.966;7.958;2023-05-29T16:21:40;97006.69;;;25.69;33.12
9281;BME280;4679;47.966;7.958;2023-05-29T16:23:42;97004.69;;;25.66;32.86
9281;BME280;4679;47.966;7.958;2023-05-29T16:25:45;97006.81;;;25.60;32.83
9281;BME280;4679;47.966;7.958;2023-05-29T16:27:46;97010.13;;;25.66;32.59
9281;BME280;4679;47.966;7.958;2023-05-29T16:29:48;97003.78;;;25.62;32.58
9281;BME280;4679;47.966;7.958;2023-05-29T16:31:50;97003.97;;;25.56;32.66
9281;BME280;4679;47.966;7.958;2023-05-29T16:33:51;97006.84;;;25.48;32.79
9281;BME280;4679;47.966;7.958;2023-05-29T16:35:54;97007.53;;;25.45;32.70
9281;BME280;4679;47.966;7.958;2023-05-29T16:37:56;97008.31;;;25.45;32.40
9281;BME280;4679;47.966;7.958;2023-05-29T16:39:58;97011.59;;;25.39;32.40
9281;BME280;4679;47.966;7.958;2023-05-29T16:42:00;97015.34;;;25.34;32.95
9281;BME280;4679;47.966;7.958;2023-05-29T16:44:01;97014.56;;;25.34;32.36
9281;BME280;4679;47.966;7.958;2023-05-29T16:46:03;97021.59;;;25.35;32.55
9281;BME280;4679;47.966;7.958;2023-05-29T16:48:06;97014.00;;;25.28;32.14
9281;BME280;4679;47.966;7.958;2023-05-29T16:50:09;97013.19;;;25.28;32.08
9281;BME280;4679;47.966;7.958;2023-05-29T16:52:12;97013.66;;;25.30;32.81
9281;BME280;4679;47.966;7.958;2023-05-29T16:54:14;97018.28;;;25.29;32.27
9281;BME280;4679;47.966;7.958;2023-05-29T16:56:16;97019.75;;;25.27;32.28
9281;BME280;4679;47.966;7.958;2023-05-29T16:58:18;97009.81;;;25.18;32.40
9281;BME280;4679;47.966;7.958;2023-05-29T17:00:20;97008.56;;;25.16;32.21
9281;BME280;4679;47.966;7.958;2023-05-29T17:02:23;97018.53;;;25.12;32.65
9281;BME280;4679;47.966;7.958;2023-05-29T17:04:25;97019.19;;;25.09;32.52
9281;BME280;4679;47.966;7.958;2023-05-29T17:06:26;97012.88;;;25.05;32.27
9281;BME280;4679;47.966;7.958;2023-05-29T17:08:29;97022.50;;;25.02;32.45
9281;BME280;4679;47.966;7.958;2023-05-29T17:10:32;97015.81;;;25.00;32.05
9281;BME280;4679;47.966;7.958;2023-05-29T17:12:34;97011.41;;;24.95;32.26
9281;BME280;4679;47.966;7.958;2023-05-29T17:14:36;97024.81;;;24.92;32.33
9281;BME280;4679;47.966;7.958;2023-05-29T17:16:37;97025.53;;;24.88;32.05
9281;BME280;4679;47.966;7.958;2023-05-29T17:18:39;97028.44;;;24.83;32.07
9281;BME280;4679;47.966;7.958;2023-05-29T17:20:41;97021.44;;;24.82;32.16
9281;BME280;4679;47.966;7.958;2023-05-29T17:22:44;97018.25;;;24.80;31.70
9281;BME280;4679;47.966;7.958;2023-05-29T17:24:47;97025.16;;;24.78;31.96
9281;BME280;4679;47.966;7.958;2023-05-29T17:26:49;97020.84;;;24.77;31.76